sensor_id;sensor_type;location;lat;lon;timestamp;pressure;altitude;pressure_sealevel;temperature;humidity
30875;BME280;17581;43.222;27.924;2023-05-21T00:02:05;100407.53;;;18.88;51.47
30875;BME280;17581;43.222;27.924;2023-05-21T00:04:38;100411.75;;;18.90;51.58
30875;BME280;17581;43.222;27.924;2023-05-21T00:07:05;100413.94;;;18.95;51.55
30875;BME280;17581;43.222;27.924;2023-05-21T00:09:31;100404.44;;;18.91;51.42
30875;BME280;17581;43.222;27.924;2023-05-21T00:11:56;100406.63;;;18.95;51.40
30875;BME280;17581;43.222;27.924;2023-05-21T00:14:22;100402.47;;;18.99;51.53
30875;BME280;17581;43.222;27.924;2023-05-21T00:16:47;100414.16;;;19.08;51.40
30875;BME280;17581;43.222;27.924;2023-05-21T00:19:13;100407.66;;;19.09;51.02
30875;BME280;17581;43.222;27.924;2023-05-21T00:21:38;100418.53;;;19.17;50.95
30875;BME280;17581;43.222;27.924;2023-05-21T00:24:04;100413.06;;;19.17;50.99
30875;BME280;17581;43.222;27.924;2023-05-21T00:26:30;100398.59;;;19.17;50.90
30875;BME280;17581;43.222;27.924;2023-05-21T00:28:55;100390.19;;;19.18;50.89
30875;BME280;17581;43.222;27.924;2023-05-21T00:31:21;100401.41;;;19.23;50.55
30875;BME280;17581;43.222;27.924;2023-05-21T00:33:46;100401.59;;;19.22;50.72
30875;BME280;17581;43.222;27.924;2023-05-21T00:36:12;100408.53;;;19.24;50.69
30875;BME280;17581;43.222;27.924;2023-05-21T00:38:39;100404.94;;;19.09;50.93
30875;BME280;17581;43.222;27.924;2023-05-21T00:41:08;100399.28;;;18.96;51.01
30875;BME280;17581;43.222;27.924;2023-05-21T00:43:34;100398.22;;;18.82;51.36
30875;BME280;17581;43.222;27.924;2023-05-21T00:46:00;100385.97;;;18.78;51.60
30875;BME280;17581;43.222;27.924;2023-05-21T00:48:25;100401.47;;;18.78;51.78
30875;BME280;17581;43.222;27.924;2023-05-21T00:50:51;100398.81;;;18.70;52.12
30875;BME280;17581;43.222;27.924;2023-05-21T00:53:17;100399.56;;;18.64;52.24
30875;BME280;17581;43.222;27.924;2023-05-21T00:55:44;100399.19;;;18.67;52.27
30875;BME280;17581;43.222;27.924;2023-05-21T00:58:10;100409.38;;;18.73;52.22
30875;BME280;17581;43.222;27.924;2023-05-21T01:00:36;100409.19;;;18.74;52.27
30875;BME280;17581;43.222;27.924;2023-05-21T01:03:05;100407.50;;;18.73;52.50
30875;BME280;17581;43.222;27.924;2023-05-21T01:05:30;100406.84;;;18.71;52.36
30875;BME280;17581;43.222;27.924;2023-05-21T01:07:57;100395.75;;;18.73;52.42
30875;BME280;17581;43.222;27.924;2023-05-21T01:10:24;100378.38;;;18.74;52.44
30875;BME280;17581;43.222;27.924;2023-05-21T01:12:51;100380.59;;;18.70;52.34
30875;BME280;17581;43.222;27.924;2023-05-21T01:15:17;100374.03;;;18.65;52.43
30875;BME280;17581;43.222;27.924;2023-05-21T01:17:43;100375.31;;;18.69;52.48
30875;BME280;17581;43.222;27.924;2023-05-21T01:20:11;100371.59;;;18.70;52.41
30875;BME280;17581;43.222;27.924;2023-05-21T01:22:50;100378.00;;;18.77;52.15
30875;BME280;17581;43.222;27.924;2023-05-21T01:25:16;100363.50;;;18.62;52.15
30875;BME280;17581;43.222;27.924;2023-05-21T01:27:41;100371.41;;;18.71;52.23
30875;BME280;17581;43.222;27.924;2023-05-21T01:30:07;100376.53;;;18.66;52.30
30875;BME280;17581;43.222;27.924;2023-05-21T01:33:02;100361.34;;;18.72;52.14
30875;BME280;17581;43.222;27.924;2023-05-21T01:35:36;100364.25;;;18.70;52.25
30875;BME280;17581;43.222;27.924;2023-05-21T01:38:32;100367.84;;;18.71;51.87
30875;BME280;17581;43.222;27.924;2023-05-21T01:41:02;100363.41;;;18.70;51.72
30875;BME280;17581;43.222;27.924;2023-05-21T01:43:34;100367.09;;;18.77;51.60
30875;BME280;17581;43.222;27.924;2023-05-21T01:46:01;100357.88;;;18.78;51.33
30875;BME280;17581;43.222;27.924;2023-05-21T01:48:27;100349.06;;;18.76;51.48
30875;BME280;17581;43.222;27.924;2023-05-21T01:51:01;100341.81;;;18.68;51.45
30875;BME280;17581;43.222;27.924;2023-05-21T01:53:27;100340.59;;;18.71;51.64
30875;BME280;17581;43.222;27.924;2023-05-21T01:55:53;100340.97;;;18.68;51.63
30875;BME280;17581;43.222;27.924;2023-05-21T01:58:18;100332.19;;;18.58;51.84
30875;BME280;17581;43.222;27.924;2023-05-21T02:00:45;100340.66;;;18.63;51.55
30875;BME280;17581;43.222;27.924;2023-05-21T02:03:12;100324.03;;;18.58;51.66
30875;BME280;17581;43.222;27.924;2023-05-21T02:05:39;100341.34;;;18.65;51.69
30875;BME280;17581;43.222;27.924;2023-05-21T02:08:04;100337.75;;;18.64;51.18
30875;BME280;17581;43.222;27.924;2023-05-21T02:10:32;100332.09;;;18.66;51.32
30875;BME280;17581;43.222;27.924;2023-05-21T02:12:58;100331.16;;;18.59;51.52
30875;BME280;17581;43.222;27.924;2023-05-21T02:15:23;100343.38;;;18.63;51.36
30875;BME280;17581;43.222;27.924;2023-05-21T02:17:50;100340.00;;;18.61;51.24
30875;BME280;17581;43.222;27.924;2023-05-21T02:20:16;100333.09;;;18.50;51.27
30875;BME280;17581;43.222;27.924;2023-05-21T02:22:44;100330.84;;;18.54;51.21
30875;BME280;17581;43.222;27.924;2023-05-21T02:25:11;100334.06;;;18.57;51.31
30875;BME280;17581;43.222;27.924;2023-05-21T02:27:38;100330.50;;;18.57;51.23
30875;BME280;17581;43.222;27.924;2023-05-21T02:30:06;100328.97;;;18.54;51.11
30875;BME280;17581;43.222;27.924;2023-05-21T02:32:32;100333.69;;;18.60;51.10
30875;BME280;17581;43.222;27.924;2023-05-21T02:34:58;100321.38;;;18.50;51.26
30875;BME280;17581;43.222;27.924;2023-05-21T02:37:24;100331.72;;;18.54;51.44
30875;BME280;17581;43.222;27.924;2023-05-21T02:39:52;100327.97;;;18.47;51.57
30875;BME280;17581;43.222;27.924;2023-05-21T02:42:18;100330.03;;;18.45;51.68
30875;BME280;17581;43.222;27.924;2023-05-21T02:44:44;100326.19;;;18.39;51.66
30875;BME280;17581;43.222;27.924;2023-05-21T02:47:09;100329.41;;;18.43;51.61
30875;BME280;17581;43.222;27.924;2023-05-21T02:49:36;100323.25;;;18.41;51.63
30875;BME280;17581;43.222;27.924;2023-05-21T02:52:02;100332.59;;;18.46;51.75
30875;BME280;17581;43.222;27.924;2023-05-21T02:54:28;100333.25;;;18.48;51.70
30875;BME280;17581;43.222;27.924;2023-05-21T02:56:53;100333.34;;;18.40;51.85
30875;BME280;17581;43.222;27.924;2023-05-21T02:59:19;100340.44;;;18.41;52.10
30875;BME280;17581;43.222;27.924;2023-05-21T03:01:44;100326.19;;;18.39;52.22
30875;BME280;17581;43.222;27.924;2023-05-21T03:04:10;100333.22;;;18.34;52.17
30875;BME280;17581;43.222;27.924;2023-05-21T03:06:35;100316.50;;;18.37;52.31
30875;BME280;17581;43.222;27.924;2023-05-21T03:09:02;100305.13;;;18.33;52.28
30875;BME280;17581;43.222;27.924;2023-05-21T03:11:27;100323.47;;;18.39;52.31
30875;BME280;17581;43.222;27.924;2023-05-21T03:13:53;100325.44;;;18.45;52.22
30875;BME280;17581;43.222;27.924;2023-05-21T03:16:18;100336.16;;;18.47;52.07
30875;BME280;17581;43.222;27.924;2023-05-21T03:18:44;100322.91;;;18.44;52.11
30875;BME280;17581;43.222;27.924;2023-05-21T03:21:09;100330.19;;;18.52;52.00
30875;BME280;17581;43.222;27.924;2023-05-21T03:23:38;100326.09;;;18.56;51.68
30875;BME280;17581;43.222;27.924;2023-05-21T03:26:06;100333.22;;;18.57;51.50
30875;BME280;17581;43.222;27.924;2023-05-21T03:28:31;100325.34;;;18.62;51.17
30875;BME280;17581;43.222;27.924;2023-05-21T03:30:57;100323.28;;;18.64;50.97
30875;BME280;17581;43.222;27.924;2023-05-21T03:33:22;100328.84;;;18.70;50.63
30875;BME280;17581;43.222;27.924;2023-05-21T03:35:48;100331.47;;;18.78;50.54
30875;BME280;17581;43.222;27.924;2023-05-21T03:38:13;100329.25;;;18.82;50.48
30875;BME280;17581;43.222;27.924;2023-05-21T03:40:39;100338.84;;;18.92;50.62
30875;BME280;17581;43.222;27.924;2023-05-21T03:43:04;100322.13;;;18.95;50.59
30875;BME280;17581;43.222;27.924;2023-05-21T03:45:30;100325.78;;;18.88;50.76
30875;BME280;17581;43.222;27.924;2023-05-21T03:47:55;100339.69;;;18.93;50.85
30875;BME280;17581;43.222;27.924;2023-05-21T03:50:20;100323.69;;;18.90;50.75
30875;BME280;17581;43.222;27.924;2023-05-21T03:52:46;100325.41;;;18.91;50.95
30875;BME280;17581;43.222;27.924;2023-05-21T03:55:11;100333.47;;;18.99;50.76
30875;BME280;17581;43.222;27.924;2023-05-21T03:57:37;100323.91;;;19.03;50.70
30875;BME280;17581;43.222;27.924;2023-05-21T04:00:03;100335.28;;;19.07;50.00
30875;BME280;17581;43.222;27.924;2023-05-21T04:02:30;100340.00;;;19.13;50.06
30875;BME280;17581;43.222;27.924;2023-05-21T04:04:56;100343.69;;;19.20;49.84
30875;BME280;17581;43.222;27.924;2023-05-21T04:07:21;100334.81;;;19.18;49.77
30875;BME280;17581;43.222;27.924;2023-05-21T04:09:47;100329.94;;;19.28;49.47
30875;BME280;17581;43.222;27.924;2023-05-21T04:12:12;100332.94;;;19.33;49.22
30875;BME280;17581;43.222;27.924;2023-05-21T04:14:38;100339.19;;;19.41;48.30
30875;BME280;17581;43.222;27.924;2023-05-21T04:17:04;100315.31;;;19.43;48.25
30875;BME280;17581;43.222;27.924;2023-05-21T04:19:32;100321.75;;;19.57;47.75
30875;BME280;17581;43.222;27.924;2023-05-21T04:21:58;100329.94;;;19.72;47.88
30875;BME280;17581;43.222;27.924;2023-05-21T04:24:23;100330.47;;;19.82;47.57
30875;BME280;17581;43.222;27.924;2023-05-21T04:26:49;100332.91;;;19.91;47.06
30875;BME280;17581;43.222;27.924;2023-05-21T04:29:15;100321.34;;;19.89;47.31
30875;BME280;17581;43.222;27.924;2023-05-21T04:31:48;100328.53;;;19.97;47.07
30875;BME280;17581;43.222;27.924;2023-05-21T04:34:14;100330.13;;;20.06;47.22
30875;BME280;17581;43.222;27.924;2023-05-21T04:36:43;100315.69;;;20.12;46.59
30875;BME280;17581;43.222;27.924;2023-05-21T04:39:10;100314.94;;;20.18;46.71
30875;BME280;17581;43.222;27.924;2023-05-21T04:41:36;100328.00;;;20.23;46.07
30875;BME280;17581;43.222;27.924;2023-05-21T04:44:03;100324.16;;;20.17;46.32
30875;BME280;17581;43.222;27.924;2023-05-21T04:46:29;100323.28;;;20.31;45.77
30875;BME280;17581;43.222;27.924;2023-05-21T04:48:55;100329.03;;;20.36;45.35
30875;BME280;17581;43.222;27.924;2023-05-21T04:51:22;100328.50;;;20.47;44.92
30875;BME280;17581;43.222;27.924;2023-05-21T04:53:49;100341.16;;;20.55;44.53
30875;BME280;17581;43.222;27.924;2023-05-21T04:56:17;100326.31;;;20.64;44.87
30875;BME280;17581;43.222;27.924;2023-05-21T04:58:44;100334.84;;;20.76;44.09
30875;BME280;17581;43.222;27.924;2023-05-21T05:01:09;100317.00;;;20.80;43.85
30875;BME280;17581;43.222;27.924;2023-05-21T05:03:37;100332.06;;;20.97;43.14
30875;BME280;17581;43.222;27.924;2023-05-21T05:06:03;100324.63;;;21.12;42.85
30875;BME280;17581;43.222;27.924;2023-05-21T05:08:28;100334.81;;;21.25;42.92
30875;BME280;17581;43.222;27.924;2023-05-21T05:10:54;100349.59;;;21.30;42.54
30875;BME280;17581;43.222;27.924;2023-05-21T05:13:20;100332.53;;;21.28;42.21
30875;BME280;17581;43.222;27.924;2023-05-21T05:15:45;100327.88;;;21.29;42.09
30875;BME280;17581;43.222;27.924;2023-05-21T05:18:11;100331.09;;;21.39;42.11
30875;BME280;17581;43.222;27.924;2023-05-21T05:20:37;100334.91;;;21.44;41.83
30875;BME280;17581;43.222;27.924;2023-05-21T05:23:02;100339.13;;;21.47;41.81
30875;BME280;17581;43.222;27.924;2023-05-21T05:25:28;100336.84;;;21.50;41.50
30875;BME280;17581;43.222;27.924;2023-05-21T05:27:53;100301.44;;;21.42;41.20
30875;BME280;17581;43.222;27.924;2023-05-21T05:30:19;100336.69;;;21.65;41.45
30875;BME280;17581;43.222;27.924;2023-05-21T05:32:45;100327.25;;;21.67;41.35
30875;BME280;17581;43.222;27.924;2023-05-21T05:35:11;100323.69;;;21.67;41.21
30875;BME280;17581;43.222;27.924;2023-05-21T05:37:36;100334.59;;;21.60;41.52
30875;BME280;17581;43.222;27.924;2023-05-21T05:40:02;100314.81;;;21.65;41.41
30875;BME280;17581;43.222;27.924;2023-05-21T05:42:29;100332.97;;;21.73;41.23
30875;BME280;17581;43.222;27.924;2023-05-21T05:44:54;100335.91;;;21.78;41.22
30875;BME280;17581;43.222;27.924;2023-05-21T05:47:20;100338.25;;;21.81;41.05
30875;BME280;17581;43.222;27.924;2023-05-21T05:49:46;100334.56;;;21.95;41.32
30875;BME280;17581;43.222;27.924;2023-05-21T05:52:12;100329.75;;;22.03;40.69
30875;BME280;17581;43.222;27.924;2023-05-21T05:54:37;100325.13;;;22.17;40.77
30875;BME280;17581;43.222;27.924;2023-05-21T05:57:03;100333.59;;;22.29;40.79
30875;BME280;17581;43.222;27.924;2023-05-21T05:59:28;100332.31;;;22.24;40.55
30875;BME280;17581;43.222;27.924;2023-05-21T06:01:54;100319.66;;;22.23;40.97
30875;BME280;17581;43.222;27.924;2023-05-21T06:04:19;100320.97;;;22.34;40.88
30875;BME280;17581;43.222;27.924;2023-05-21T06:06:45;100320.97;;;22.54;40.44
30875;BME280;17581;43.222;27.924;2023-05-21T06:09:11;100321.81;;;22.61;39.54
30875;BME280;17581;43.222;27.924;2023-05-21T06:11:37;100326.03;;;22.63;38.89
30875;BME280;17581;43.222;27.924;2023-05-21T06:14:02;100318.91;;;22.75;38.82
30875;BME280;17581;43.222;27.924;2023-05-21T06:16:28;100322.91;;;22.80;39.07
30875;BME280;17581;43.222;27.924;2023-05-21T06:18:56;100315.13;;;22.83;39.13
30875;BME280;17581;43.222;27.924;2023-05-21T06:21:22;100328.16;;;23.07;38.52
30875;BME280;17581;43.222;27.924;2023-05-21T06:23:47;100318.06;;;23.08;38.44
30875;BME280;17581;43.222;27.924;2023-05-21T06:26:13;100316.34;;;23.20;38.09
30875;BME280;17581;43.222;27.924;2023-05-21T06:28:38;100313.59;;;23.13;37.80
30875;BME280;17581;43.222;27.924;2023-05-21T06:31:04;100302.00;;;23.05;37.75
30875;BME280;17581;43.222;27.924;2023-05-21T06:33:29;100325.63;;;23.19;37.76
30875;BME280;17581;43.222;27.924;2023-05-21T06:35:55;100311.69;;;23.20;37.60
30875;BME280;17581;43.222;27.924;2023-05-21T06:38:21;100311.88;;;23.32;37.56
30875;BME280;17581;43.222;27.924;2023-05-21T06:40:46;100299.41;;;23.36;37.24
30875;BME280;17581;43.222;27.924;2023-05-21T06:43:13;100310.38;;;23.49;37.32
30875;BME280;17581;43.222;27.924;2023-05-21T06:45:38;100309.94;;;23.52;37.09
30875;BME280;17581;43.222;27.924;2023-05-21T06:48:04;100310.81;;;23.46;37.22
30875;BME280;17581;43.222;27.924;2023-05-21T06:50:29;100310.38;;;23.49;37.06
30875;BME280;17581;43.222;27.924;2023-05-21T06:52:55;100300.66;;;23.53;36.35
30875;BME280;17581;43.222;27.924;2023-05-21T06:55:21;100313.69;;;23.64;36.45
30875;BME280;17581;43.222;27.924;2023-05-21T06:57:46;100318.38;;;23.57;36.84
30875;BME280;17581;43.222;27.924;2023-05-21T07:00:12;100288.78;;;23.59;36.71
30875;BME280;17581;43.222;27.924;2023-05-21T07:02:38;100314.50;;;23.78;36.39
30875;BME280;17581;43.222;27.924;2023-05-21T07:05:04;100302.81;;;23.89;36.39
30875;BME280;17581;43.222;27.924;2023-05-21T07:07:29;100312.75;;;23.90;35.97
30875;BME280;17581;43.222;27.924;2023-05-21T07:09:54;100314.69;;;23.76;36.06
30875;BME280;17581;43.222;27.924;2023-05-21T07:12:20;100303.94;;;23.75;36.33
30875;BME280;17581;43.222;27.924;2023-05-21T07:14:45;100289.94;;;23.83;36.11
30875;BME280;17581;43.222;27.924;2023-05-21T07:17:11;100300.66;;;23.98;35.61
30875;BME280;17581;43.222;27.924;2023-05-21T07:19:36;100289.00;;;24.02;35.33
30875;BME280;17581;43.222;27.924;2023-05-21T07:22:03;100291.28;;;24.18;35.16
30875;BME280;17581;43.222;27.924;2023-05-21T07:24:29;100292.44;;;24.29;34.76
30875;BME280;17581;43.222;27.924;2023-05-21T07:26:54;100280.53;;;24.42;34.78
30875;BME280;17581;43.222;27.924;2023-05-21T07:29:20;100286.88;;;24.42;34.98
30875;BME280;17581;43.222;27.924;2023-05-21T07:31:45;100296.00;;;24.67;35.08
30875;BME280;17581;43.222;27.924;2023-05-21T07:34:10;100288.25;;;24.82;34.84
30875;BME280;17581;43.222;27.924;2023-05-21T07:36:36;100286.31;;;25.08;34.78
30875;BME280;17581;43.222;27.924;2023-05-21T07:39:01;100268.22;;;25.18;34.00
30875;BME280;17581;43.222;27.924;2023-05-21T07:41:29;100290.22;;;25.18;33.75
30875;BME280;17581;43.222;27.924;2023-05-21T07:43:54;100279.16;;;25.25;34.20
30875;BME280;17581;43.222;27.924;2023-05-21T07:46:20;100291.19;;;25.49;33.91
30875;BME280;17581;43.222;27.924;2023-05-21T07:48:46;100298.16;;;25.51;33.91
30875;BME280;17581;43.222;27.924;2023-05-21T07:51:12;100295.38;;;25.51;33.97
30875;BME280;17581;43.222;27.924;2023-05-21T07:53:38;100296.16;;;25.58;34.05
30875;BME280;17581;43.222;27.924;2023-05-21T07:56:04;100293.53;;;25.63;33.90
30875;BME280;17581;43.222;27.924;2023-05-21T07:58:29;100272.91;;;25.54;34.25
30875;BME280;17581;43.222;27.924;2023-05-21T08:00:55;100281.31;;;25.59;34.87
30875;BME280;17581;43.222;27.924;2023-05-21T08:03:21;100288.81;;;25.70;34.83
30875;BME280;17581;43.222;27.924;2023-05-21T08:05:47;100285.59;;;25.73;35.56
30875;BME280;17581;43.222;27.924;2023-05-21T08:08:17;100298.44;;;25.79;35.68
30875;BME280;17581;43.222;27.924;2023-05-21T08:10:43;100284.56;;;25.86;35.61
30875;BME280;17581;43.222;27.924;2023-05-21T08:13:10;100295.22;;;25.82;35.82
30875;BME280;17581;43.222;27.924;2023-05-21T08:15:36;100289.56;;;25.77;36.20
30875;BME280;17581;43.222;27.924;2023-05-21T08:18:01;100301.97;;;25.68;36.25
30875;BME280;17581;43.222;27.924;2023-05-21T08:20:27;100311.97;;;25.81;36.31
30875;BME280;17581;43.222;27.924;2023-05-21T08:22:53;100301.97;;;25.68;36.14
30875;BME280;17581;43.222;27.924;2023-05-21T08:25:19;100295.38;;;25.51;36.51
30875;BME280;17581;43.222;27.924;2023-05-21T08:27:44;100305.47;;;25.57;36.64
30875;BME280;17581;43.222;27.924;2023-05-21T08:30:10;100304.09;;;25.66;36.64
30875;BME280;17581;43.222;27.924;2023-05-21T08:32:36;100316.56;;;25.87;36.53
30875;BME280;17581;43.222;27.924;2023-05-21T08:35:01;100318.94;;;25.83;36.01
30875;BME280;17581;43.222;27.924;2023-05-21T08:37:28;100311.63;;;25.77;36.46
30875;BME280;17581;43.222;27.924;2023-05-21T08:39:53;100313.97;;;25.74;36.38
30875;BME280;17581;43.222;27.924;2023-05-21T08:42:38;100322.31;;;25.67;36.60
30875;BME280;17581;43.222;27.924;2023-05-21T08:45:05;100319.59;;;25.42;37.27
30875;BME280;17581;43.222;27.924;2023-05-21T08:47:34;100313.84;;;25.26;37.59
30875;BME280;17581;43.222;27.924;2023-05-21T08:50:03;100318.03;;;25.35;37.92
30875;BME280;17581;43.222;27.924;2023-05-21T08:52:30;100328.72;;;25.25;37.94
30875;BME280;17581;43.222;27.924;2023-05-21T08:54:56;100335.19;;;25.12;38.17
30875;BME280;17581;43.222;27.924;2023-05-21T08:57:24;100325.94;;;25.07;38.49
30875;BME280;17581;43.222;27.924;2023-05-21T08:59:49;100324.22;;;25.06;38.19
30875;BME280;17581;43.222;27.924;2023-05-21T09:02:15;100328.88;;;25.05;38.47
30875;BME280;17581;43.222;27.924;2023-05-21T09:04:44;100326.69;;;25.14;37.92
30875;BME280;17581;43.222;27.924;2023-05-21T09:07:14;100344.22;;;25.19;37.23
30875;BME280;17581;43.222;27.924;2023-05-21T09:09:57;100339.59;;;25.38;37.25
30875;BME280;17581;43.222;27.924;2023-05-21T09:12:23;100338.03;;;25.42;36.51
30875;BME280;17581;43.222;27.924;2023-05-21T09:14:50;100338.50;;;25.39;36.47
30875;BME280;17581;43.222;27.924;2023-05-21T09:17:16;100339.59;;;25.38;36.21
30875;BME280;17581;43.222;27.924;2023-05-21T09:20:09;100344.22;;;25.62;36.19
30875;BME280;17581;43.222;27.924;2023-05-21T09:22:43;100347.56;;;25.82;34.87
30875;BME280;17581;43.222;27.924;2023-05-21T09:25:10;100349.53;;;25.93;34.90
30875;BME280;17581;43.222;27.924;2023-05-21T09:27:37;100355.44;;;25.79;35.30
30875;BME280;17581;43.222;27.924;2023-05-21T09:30:06;100353.69;;;25.84;35.39
30875;BME280;17581;43.222;27.924;2023-05-21T09:32:33;100352.63;;;25.85;35.36
30875;BME280;17581;43.222;27.924;2023-05-21T09:37:36;100349.06;;;25.96;35.62
30875;BME280;17581;43.222;27.924;2023-05-21T09:40:09;100345.88;;;25.81;35.77
30875;BME280;17581;43.222;27.924;2023-05-21T09:42:34;100351.84;;;25.78;35.79
30875;BME280;17581;43.222;27.924;2023-05-21T09:45:00;100342.66;;;25.66;35.80
30875;BME280;17581;43.222;27.924;2023-05-21T09:47:25;100348.03;;;25.79;36.35
30875;BME280;17581;43.222;27.924;2023-05-21T09:49:50;100351.53;;;26.05;36.33
30875;BME280;17581;43.222;27.924;2023-05-21T09:52:22;100347.78;;;25.99;36.53
30875;BME280;17581;43.222;27.924;2023-05-21T09:54:50;100341.34;;;26.23;36.46
30875;BME280;17581;43.222;27.924;2023-05-21T09:57:25;100350.59;;;26.29;35.61
30875;BME280;17581;43.222;27.924;2023-05-21T09:59:50;100356.59;;;26.37;35.66
30875;BME280;17581;43.222;27.924;2023-05-21T10:02:19;100353.63;;;26.39;35.46
30875;BME280;17581;43.222;27.924;2023-05-21T10:04:47;100356.31;;;26.57;35.48
30875;BME280;17581;43.222;27.924;2023-05-21T10:07:18;100339.31;;;26.30;34.50
30875;BME280;17581;43.222;27.924;2023-05-21T10:09:46;100348.28;;;26.26;34.89
30875;BME280;17581;43.222;27.924;2023-05-21T10:12:15;100347.06;;;26.22;35.07
30875;BME280;17581;43.222;27.924;2023-05-21T10:14:44;100347.31;;;26.02;35.52
30875;BME280;17581;43.222;27.924;2023-05-21T10:17:11;100347.41;;;25.95;36.03
30875;BME280;17581;43.222;27.924;2023-05-21T10:19:37;100349.38;;;26.07;36.36
30875;BME280;17581;43.222;27.924;2023-05-21T10:22:05;100339.75;;;25.97;35.76
30875;BME280;17581;43.222;27.924;2023-05-21T10:24:30;100352.25;;;26.12;36.23
30875;BME280;17581;43.222;27.924;2023-05-21T10:26:56;100342.28;;;25.99;36.17
30875;BME280;17581;43.222;27.924;2023-05-21T10:29:22;100369.72;;;26.06;36.12
30875;BME280;17581;43.222;27.924;2023-05-21T10:31:49;100349.84;;;26.04;35.87
30875;BME280;17581;43.222;27.924;2023-05-21T10:34:16;100352.53;;;25.92;36.34
30875;BME280;17581;43.222;27.924;2023-05-21T10:36:42;100364.41;;;25.92;35.80
30875;BME280;17581;43.222;27.924;2023-05-21T10:39:11;100365.72;;;25.90;36.17
30875;BME280;17581;43.222;27.924;2023-05-21T10:41:48;100355.84;;;25.82;36.15
30875;BME280;17581;43.222;27.924;2023-05-21T10:44:43;100374.44;;;25.87;36.31
30875;BME280;17581;43.222;27.924;2023-05-21T11:01:07;100369.97;;;26.04;36.29
30875;BME280;17581;43.222;27.924;2023-05-21T11:03:33;100366.31;;;25.92;36.21
30875;BME280;17581;43.222;27.924;2023-05-21T11:06:01;100366.66;;;26.14;35.85
30875;BME280;17581;43.222;27.924;2023-05-21T11:08:29;100364.38;;;26.29;36.34
30875;BME280;17581;43.222;27.924;2023-05-21T11:10:56;100370.44;;;26.19;36.16
30875;BME280;17581;43.222;27.924;2023-05-21T11:13:23;100369.56;;;26.37;36.57
30875;BME280;17581;43.222;27.924;2023-05-21T11:21:09;100359.75;;;26.82;35.96
30875;BME280;17581;43.222;27.924;2023-05-21T11:24:01;100346.09;;;26.87;35.21
30875;BME280;17581;43.222;27.924;2023-05-21T11:26:30;100354.03;;;26.95;35.06
30875;BME280;17581;43.222;27.924;2023-05-21T11:29:15;100328.34;;;26.95;34.63
30875;BME280;17581;43.222;27.924;2023-05-21T11:31:47;100330.31;;;26.65;34.20
30875;BME280;17581;43.222;27.924;2023-05-21T11:34:19;100352.09;;;26.84;33.99
30875;BME280;17581;43.222;27.924;2023-05-21T11:39:44;100356.72;;;26.72;33.75
30875;BME280;17581;43.222;27.924;2023-05-21T11:42:10;100348.66;;;26.59;34.11
30875;BME280;17581;43.222;27.924;2023-05-21T11:44:40;100346.38;;;26.68;34.42
30875;BME280;17581;43.222;27.924;2023-05-21T11:47:08;100348.72;;;26.82;33.97
30875;BME280;17581;43.222;27.924;2023-05-21T11:49:35;100348.28;;;26.56;34.44
30875;BME280;17581;43.222;27.924;2023-05-21T11:52:05;100359.00;;;26.34;34.92
30875;BME280;17581;43.222;27.924;2023-05-21T11:54:32;100340.53;;;26.34;34.98
30875;BME280;17581;43.222;27.924;2023-05-21T11:57:01;100359.88;;;26.46;35.50
30875;BME280;17581;43.222;27.924;2023-05-21T11:59:27;100348.59;;;26.36;35.23
30875;BME280;17581;43.222;27.924;2023-05-21T12:01:54;100342.31;;;26.29;35.48
30875;BME280;17581;43.222;27.924;2023-05-21T12:04:20;100354.81;;;26.13;35.81
30875;BME280;17581;43.222;27.924;2023-05-21T12:06:46;100348.03;;;25.79;36.32
30875;BME280;17581;43.222;27.924;2023-05-21T12:09:12;100345.50;;;25.78;36.78
30875;BME280;17581;43.222;27.924;2023-05-21T12:11:39;100352.31;;;25.75;36.76
30875;BME280;17581;43.222;27.924;2023-05-21T12:14:09;100345.59;;;25.71;36.84
30875;BME280;17581;43.222;27.924;2023-05-21T12:16:35;100342.22;;;25.69;37.19
30875;BME280;17581;43.222;27.924;2023-05-21T12:19:02;100345.22;;;25.68;37.21
30875;BME280;17581;43.222;27.924;2023-05-21T12:21:31;100324.84;;;25.51;37.27
30875;BME280;17581;43.222;27.924;2023-05-21T12:23:57;100326.78;;;25.50;37.58
30875;BME280;17581;43.222;27.924;2023-05-21T12:26:23;100330.59;;;25.49;38.27
30875;BME280;17581;43.222;27.924;2023-05-21T12:28:53;100339.97;;;25.78;38.45
30875;BME280;17581;43.222;27.924;2023-05-21T12:31:20;100329.34;;;25.63;39.17
30875;BME280;17581;43.222;27.924;2023-05-21T12:33:52;100352.09;;;25.77;39.46
30875;BME280;17581;43.222;27.924;2023-05-21T12:36:22;100346.00;;;26.05;39.40
30875;BME280;17581;43.222;27.924;2023-05-21T12:38:50;100334.53;;;26.08;39.08
30875;BME280;17581;43.222;27.924;2023-05-21T12:41:16;100334.72;;;26.24;38.58
30875;BME280;17581;43.222;27.924;2023-05-21T12:43:42;100343.97;;;26.30;38.86
30875;BME280;17581;43.222;27.924;2023-05-21T12:46:10;100332.75;;;26.43;38.59
30875;BME280;17581;43.222;27.924;2023-05-21T12:48:39;100334.56;;;26.49;37.91
30875;BME280;17581;43.222;27.924;2023-05-21T12:51:05;100327.34;;;26.36;37.60
30875;BME280;17581;43.222;27.924;2023-05-21T12:53:36;100322.97;;;26.17;36.65
30875;BME280;17581;43.222;27.924;2023-05-21T12:56:09;100319.44;;;26.40;36.06
30875;BME280;17581;43.222;27.924;2023-05-21T12:58:34;100322.50;;;26.62;35.40
30875;BME280;17581;43.222;27.924;2023-05-21T13:01:05;100313.06;;;26.69;34.09
30875;BME280;17581;43.222;27.924;2023-05-21T13:03:31;100316.34;;;26.89;33.60
30875;BME280;17581;43.222;27.924;2023-05-21T13:05:57;100303.59;;;26.88;33.50